Time;durP1;ratioP1;P1;durP2;ratioP2;P2;SDS_P1;SDS_P2;PMS_P1;PMS_P2;Temp;Humidity;BMP_temperature;BMP_pressure;BME280_temperature;BME280_humidity;BME280_pressure;Samples;Min_cycle;Max_cycle;Signal;HPM_P1;HPM_P2
2022/09/24 00:00:52;;;;;;;10.35;5.38;;;;;;;21.50;46.36;101100.69;4976257;28;20027;-70
2022/09/24 00:03:23;;;;;;;10.35;4.20;;;;;;;21.46;46.47;101098.34;4975874;28;20516;-70
2022/09/24 00:05:49;;;;;;;8.60;4.70;;;;;;;21.44;46.32;101094.94;4960081;28;20031;-70
2022/09/24 00:08:16;;;;;;;7.97;4.55;;;;;;;21.43;46.38;101101.47;4976104;28;20389;-70
2022/09/24 00:10:43;;;;;;;11.15;4.43;;;;;;;21.43;46.55;101093.28;4976069;28;20498;-70
2022/09/24 00:13:13;;;;;;;9.77;4.72;;;;;;;21.40;46.18;101090.94;4959894;28;20118;-70
2022/09/24 00:15:44;;;;;;;7.57;4.65;;;;;;;21.38;46.27;101090.28;4960150;28;20134;-70
2022/09/24 00:18:11;;;;;;;7.97;4.75;;;;;;;21.37;46.49;101093.19;4975927;28;20365;-70
2022/09/24 00:20:37;;;;;;;9.07;5.15;;;;;;;21.34;46.53;101093.59;4959694;28;20113;-70
2022/09/24 00:23:04;;;;;;;7.97;4.75;;;;;;;21.29;46.88;101086.00;4959535;28;20023;-70
2022/09/24 00:28:14;;;;;;;8.68;5.13;;;;;;;21.23;46.83;101075.84;4975966;28;20120;-70
2022/09/24 00:30:41;;;;;;;10.18;5.45;;;;;;;21.25;47.07;101084.69;4975756;28;20027;-70
2022/09/24 00:33:06;;;;;;;9.70;5.25;;;;;;;21.25;47.02;101083.81;4975700;28;20477;-70
2022/09/24 00:35:33;;;;;;;9.60;5.35;;;;;;;21.22;47.03;101079.59;4959418;28;20081;-70
2022/09/24 00:37:58;;;;;;;9.25;5.22;;;;;;;21.22;47.14;101079.59;4975662;28;20034;-70
2022/09/24 00:40:32;;;;;;;9.23;5.28;;;;;;;21.21;47.36;101069.75;4959415;28;20089;-70
2022/09/24 00:42:57;;;;;;;10.55;5.93;;;;;;;21.17;46.38;101071.16;4959341;28;20444;-70
2022/09/24 00:45:23;;;;;;;11.95;5.10;;;;;;;21.17;46.55;101071.16;4943529;28;20093;-70
2022/09/24 00:47:50;;;;;;;13.48;5.18;;;;;;;21.15;46.20;101066.94;4975440;28;20105;-70
2022/09/24 00:50:23;;;;;;;8.30;4.78;;;;;;;21.12;46.60;101067.34;4975348;28;20030;-70
2022/09/24 00:52:54;;;;;;;8.73;4.35;;;;;;;21.09;46.37;101067.72;4975299;28;20026;-70
2022/09/24 00:55:20;;;;;;;12.77;5.00;;;;;;;21.09;46.52;101073.16;4959032;28;20023;-70
2022/09/24 00:57:48;;;;;;;7.90;5.22;;;;;;;21.03;46.66;101063.84;4975249;28;20476;-70
2022/09/24 01:00:14;;;;;;;9.55;5.35;;;;;;;21.03;46.31;101063.00;4976289;28;20061;-70
2022/09/24 01:02:42;;;;;;;10.80;4.68;;;;;;;21.02;46.77;101053.97;4943034;28;20442;-70
2022/09/24 01:05:09;;;;;;;11.13;5.50;;;;;;;20.99;47.49;101057.09;4974985;28;20121;-70
2022/09/24 01:07:34;;;;;;;10.27;5.38;;;;;;;20.97;47.20;101050.13;4975053;28;20027;-70
2022/09/24 01:10:00;;;;;;;9.90;5.53;;;;;;;20.95;47.23;101052.22;4942900;28;20481;-70
2022/09/24 01:12:46;;;;;;;8.48;5.47;;;;;;;20.94;46.98;101056.81;4958711;28;20026;-70
2022/09/24 01:15:23;;;;;;;9.07;5.13;;;;;;;20.89;46.43;101048.38;4974453;28;20424;-70
2022/09/24 01:18:06;;;;;;;9.82;5.20;;;;;;;20.87;46.62;101042.28;4958685;28;20030;-70
2022/09/24 01:20:37;;;;;;;10.60;5.72;;;;;;;20.92;47.10;101050.72;4974785;28;20080;-70
2022/09/24 01:23:17;;;;;;;11.93;5.47;;;;;;;20.92;46.81;101048.84;4974592;28;20073;-70
2022/09/24 01:25:53;;;;;;;10.18;5.78;;;;;;;20.90;47.73;101041.91;4975851;28;20033;-71
2022/09/24 01:28:37;;;;;;;9.18;6.30;;;;;;;20.89;46.87;101034.75;4974645;28;20122;-70
2022/09/24 01:31:13;;;;;;;10.20;6.47;;;;;;;20.88;47.75;101043.97;4975692;28;20027;-70
2022/09/24 01:33:39;;;;;;;12.30;6.43;;;;;;;20.86;47.58;101033.25;4974593;28;20030;-70
2022/09/24 01:36:07;;;;;;;8.73;5.43;;;;;;;20.86;47.23;101029.69;4958028;28;20038;-70
2022/09/24 01:38:37;;;;;;;8.93;5.60;;;;;;;20.87;47.74;101031.38;4958463;28;20037;-70
2022/09/24 01:41:04;;;;;;;10.98;5.32;;;;;;;20.88;46.43;101022.19;4958310;28;20030;-70
2022/09/24 01:43:29;;;;;;;8.70;5.78;;;;;;;20.87;47.10;101028.66;4974301;28;20110;-70
2022/09/24 01:45:59;;;;;;;10.70;5.85;;;;;;;20.86;47.36;101014.19;4975514;28;20118;-70
2022/09/24 01:48:25;;;;;;;10.98;5.82;;;;;;;20.83;47.44;101011.00;4958521;28;20030;-70
2022/09/24 01:50:56;;;;;;;11.55;5.97;;;;;;;20.80;47.09;101001.34;4974246;28;20541;-70
2022/09/24 01:53:26;;;;;;;14.43;5.93;;;;;;;20.82;47.32;101006.63;4958048;28;20026;-71
2022/09/24 01:56:15;;;;;;;12.00;5.95;;;;;;;20.84;47.88;100999.09;4975244;28;20026;-70
2022/09/24 01:58:50;;;;;;;9.77;5.60;;;;;;;20.81;47.41;100999.47;4974991;28;20531;-70
2022/09/24 02:01:27;;;;;;;13.32;6.90;;;;;;;20.84;47.34;100999.94;4957859;28;20117;-70
2022/09/24 02:03:58;;;;;;;10.48;5.78;;;;;;;20.82;47.38;100988.41;4973781;28;20125;-70
2022/09/24 02:06:31;;;;;;;11.85;5.82;;;;;;;20.86;46.97;100994.28;4974006;28;20034;-70
2022/09/24 02:08:58;;;;;;;10.23;6.15;;;;;;;20.85;47.76;100990.72;4973939;28;20026;-70
2022/09/24 02:11:23;;;;;;;12.40;6.72;;;;;;;20.87;47.46;100987.81;4957816;28;20092;-70
2022/09/24 02:14:03;;;;;;;11.38;6.63;;;;;;;20.87;47.46;100993.25;4973841;28;20039;-70
2022/09/24 02:16:37;;;;;;;12.68;6.60;;;;;;;20.88;47.66;100986.78;4973838;28;20385;-69
2022/09/24 02:19:06;;;;;;;11.60;6.82;;;;;;;20.90;47.06;100982.00;4957592;28;20062;-70
2022/09/24 02:21:35;;;;;;;11.18;6.03;;;;;;;20.90;47.75;100982.84;4957502;28;20027;-70
2022/09/24 02:24:23;;;;;;;12.23;6.95;;;;;;;20.92;46.87;100990.81;4973642;28;20054;-70
2022/09/24 02:26:49;;;;;;;12.68;7.25;;;;;;;20.94;48.07;100987.91;4973963;28;20027;-70
2022/09/24 02:29:15;;;;;;;11.50;6.05;;;;;;;20.92;47.24;100985.34;4957575;28;20034;-70
2022/09/24 02:31:44;;;;;;;15.38;7.18;;;;;;;20.91;47.47;100986.38;4941550;28;20500;-70
2022/09/24 02:34:20;;;;;;;14.35;5.55;;;;;;;20.89;47.95;100981.13;4957450;28;20081;-70
2022/09/24 02:36:46;;;;;;;13.63;6.03;;;;;;;20.88;47.35;100984.06;4973522;28;20030;-70
2022/09/24 02:39:12;;;;;;;10.25;6.35;;;;;;;20.87;47.32;100987.81;4973434;28;20030;-70
2022/09/24 02:41:38;;;;;;;10.52;6.45;;;;;;;20.86;47.76;100980.66;4973676;28;20109;-70
2022/09/24 02:44:03;;;;;;;14.10;6.93;;;;;;;20.84;47.70;100977.31;4957137;28;20066;-70
2022/09/24 02:46:29;;;;;;;18.55;7.55;;;;;;;20.85;47.71;100979.00;4957176;28;20571;-70
2022/09/24 02:48:55;;;;;;;11.18;6.38;;;;;;;20.85;47.10;100979.00;4972794;28;20059;-70
2022/09/24 02:51:20;;;;;;;14.45;6.95;;;;;;;20.85;47.63;100974.38;4973321;28;20373;-70
2022/09/24 02:53:46;;;;;;;10.95;6.65;;;;;;;20.86;47.30;100970.63;4973378;28;20489;-70
2022/09/24 02:56:11;;;;;;;15.18;7.10;;;;;;;20.86;47.36;100964.34;4973408;28;20042;-70
2022/09/24 02:58:36;;;;;;;11.00;6.47;;;;;;;20.89;47.61;100974.84;4957221;28;20031;-70
2022/09/24 03:01:04;;;;;;;11.27;6.70;;;;;;;20.89;47.67;100974.84;4973182;28;20031;-70
2022/09/24 03:03:29;;;;;;;14.77;7.32;;;;;;;20.89;47.64;100974.84;4972996;28;20046;-70
2022/09/24 03:05:55;;;;;;;13.25;7.95;;;;;;;20.88;47.57;100973.19;4957135;28;20094;-70
2022/09/24 03:08:21;;;;;;;14.20;6.72;;;;;;;20.86;47.45;100972.50;4973239;28;20436;-70
2022/09/24 03:10:48;;;;;;;13.07;7.35;;;;;;;20.84;48.07;100963.69;4973471;28;20113;-70
2022/09/24 03:13:13;;;;;;;14.80;6.95;;;;;;;20.82;47.93;100971.22;4957150;28;20473;-70
2022/09/24 03:15:39;;;;;;;12.68;7.35;;;;;;;20.84;47.71;100963.69;4973060;28;20130;-70
2022/09/24 03:18:04;;;;;;;12.30;7.07;;;;;;;20.81;47.44;100966.78;4957094;28;20030;-70
2022/09/24 03:20:29;;;;;;;16.17;7.85;;;;;;;20.82;47.89;100969.34;4973017;28;20038;-70
2022/09/24 03:22:55;;;;;;;12.43;7.10;;;;;;;20.80;48.00;100965.94;4973117;28;20027;-70
2022/09/24 03:25:21;;;;;;;10.43;6.80;;;;;;;20.81;47.69;100962.19;4973059;28;20023;-70
2022/09/24 03:27:46;;;;;;;11.15;6.43;;;;;;;20.82;47.78;100957.59;4956936;28;20400;-70
2022/09/24 03:32:55;;;;;;;12.25;6.78;;;;;;;20.79;48.20;100952.53;4974207;28;20038;-70
2022/09/24 03:35:21;;;;;;;15.48;8.15;;;;;;;20.76;47.58;100942.03;4972836;28;20035;-70
2022/09/24 03:37:46;;;;;;;12.98;6.95;;;;;;;20.81;48.62;100955.91;4974162;28;20027;-70
2022/09/24 03:40:12;;;;;;;16.33;7.25;;;;;;;20.82;47.91;100957.59;4972974;28;20106;-70
2022/09/24 03:42:38;;;;;;;12.27;7.32;;;;;;;20.80;47.33;100954.19;4956765;28;20027;-70
2022/09/24 03:45:04;;;;;;;14.23;7.60;;;;;;;20.78;47.79;100948.97;4972927;28;20042;-70
2022/09/24 03:47:30;;;;;;;15.55;7.70;;;;;;;20.78;47.87;100948.13;4972792;28;20077;-69
2022/09/24 03:49:55;;;;;;;13.43;7.30;;;;;;;20.79;48.15;100952.53;4957037;28;20062;-70
2022/09/24 03:52:21;;;;;;;17.85;8.32;;;;;;;20.76;47.75;100948.31;4972775;28;20035;-70
2022/09/24 03:54:47;;;;;;;18.92;7.55;;;;;;;20.79;48.09;100947.09;4972862;28;20026;-70
2022/09/24 03:57:13;;;;;;;13.65;6.40;;;;;;;20.76;47.49;100942.03;4973913;28;20492;-70
2022/09/24 03:59:40;;;;;;;11.85;6.45;;;;;;;20.78;48.12;100945.38;4974970;28;20646;-70
2022/09/24 04:02:06;;;;;;;16.17;6.55;;;;;;;20.79;47.43;100944.38;4976224;28;20026;-70
2022/09/24 04:04:32;;;;;;;10.55;6.00;;;;;;;20.80;47.41;100944.16;4975962;28;20523;-70
2022/09/24 04:06:57;;;;;;;10.43;6.88;;;;;;;20.80;48.08;100943.31;4976179;28;20110;-70
2022/09/24 04:09:23;;;;;;;9.00;6.15;;;;;;;20.77;47.57;100933.66;4976132;28;20037;-70
2022/09/24 04:11:50;;;;;;;11.05;6.43;;;;;;;20.78;48.06;100939.94;4960012;28;20152;-70
2022/09/24 04:14:15;;;;;;;11.65;6.50;;;;;;;20.77;47.90;100939.09;4976244;28;20136;-70
2022/09/24 04:16:41;;;;;;;10.70;5.82;;;;;;;20.76;47.67;100925.69;4959719;28;20031;-70
2022/09/24 04:19:06;;;;;;;10.10;5.65;;;;;;;20.79;47.72;100930.75;4959781;28;20066;-70
2022/09/24 04:21:32;;;;;;;10.18;6.32;;;;;;;20.77;47.31;100933.66;4976168;28;20077;-70
2022/09/24 04:23:57;;;;;;;12.15;5.72;;;;;;;20.77;47.45;100927.38;4959696;28;20449;-70
2022/09/24 04:26:23;;;;;;;9.75;5.47;;;;;;;20.75;47.37;100932.16;4959700;28;20038;-70
2022/09/24 04:28:49;;;;;;;9.38;6.22;;;;;;;20.72;48.28;100930.66;4975812;28;20031;-70
2022/09/24 04:31:14;;;;;;;11.70;6.32;;;;;;;20.74;47.64;100927.78;4975770;28;20034;-70
2022/09/24 04:33:40;;;;;;;15.95;6.43;;;;;;;20.73;48.35;100931.53;4975669;28;20182;-70
2022/09/24 04:36:05;;;;;;;12.25;6.47;;;;;;;20.72;47.81;100922.50;4943622;28;20026;-70
2022/09/24 04:38:31;;;;;;;10.32;5.63;;;;;;;20.72;48.25;100918.94;4975510;28;20026;-70
2022/09/24 04:41:06;;;;;;;12.98;6.13;;;;;;;20.73;47.31;100926.06;4959538;28;20031;-70
2022/09/24 04:43:32;;;;;;;9.93;5.70;;;;;;;20.71;47.46;100925.44;4975434;28;20097;-70
2022/09/24 04:45:58;;;;;;;10.35;6.00;;;;;;;20.70;48.30;100926.44;4943388;28;20477;-70
2022/09/24 04:48:23;;;;;;;12.82;6.38;;;;;;;20.67;47.64;100921.38;4975272;28;20033;-70
2022/09/24 04:50:49;;;;;;;11.20;6.45;;;;;;;20.68;47.77;100932.09;4959295;28;20031;-70
2022/09/24 04:53:14;;;;;;;16.33;6.43;;;;;;;20.68;48.08;100931.25;4976774;28;20433;-70
2022/09/24 04:55:40;;;;;;;10.90;5.95;;;;;;;20.66;47.98;100933.34;4975189;28;20039;-70
2022/09/24 04:58:06;;;;;;;8.57;5.90;;;;;;;20.68;48.32;100929.38;4975535;28;20037;-70
2022/09/24 05:00:32;;;;;;;12.13;6.38;;;;;;;20.67;47.87;100932.28;4959057;28;20548;-70
2022/09/24 05:02:59;;;;;;;14.32;6.32;;;;;;;20.64;47.87;100928.06;4976118;28;20141;-70
2022/09/24 05:05:25;;;;;;;9.65;5.45;;;;;;;20.64;48.06;100933.50;4975126;28;20030;-70
2022/09/24 05:07:51;;;;;;;10.27;6.68;;;;;;;20.63;48.46;100936.44;4959024;28;20034;-70
2022/09/24 05:10:17;;;;;;;11.75;5.93;;;;;;;20.60;48.01;100937.63;4974356;28;20030;-70
2022/09/24 05:12:42;;;;;;;10.75;5.53;;;;;;;20.58;48.29;100930.69;4958822;28;20031;-70
2022/09/24 05:15:08;;;;;;;14.80;6.40;;;;;;;20.60;48.31;100936.81;4974933;28;20146;-70
2022/09/24 05:17:38;;;;;;;12.25;6.47;;;;;;;20.60;47.47;100931.38;4976042;28;20031;-70
2022/09/24 05:20:04;;;;;;;10.57;5.93;;;;;;;20.60;47.82;100934.09;4974801;28;20023;-70
2022/09/24 05:22:30;;;;;;;12.05;6.60;;;;;;;20.63;48.00;100936.44;4974964;28;20038;-70
2022/09/24 05:24:55;;;;;;;12.23;5.88;;;;;;;20.61;48.18;100933.03;4958719;28;20035;-70
2022/09/24 05:27:23;;;;;;;14.57;7.00;;;;;;;20.61;48.36;100935.75;4974622;28;20054;-70
2022/09/24 05:29:49;;;;;;;12.75;6.78;;;;;;;20.60;47.99;100934.09;4974628;28;20029;-70
2022/09/24 05:32:16;;;;;;;16.90;6.13;;;;;;;20.60;48.32;100934.09;4975715;28;20022;-70
2022/09/24 05:34:43;;;;;;;11.10;6.10;;;;;;;20.60;48.25;100942.25;4974516;28;20110;-70
2022/09/24 05:37:09;;;;;;;10.48;5.63;;;;;;;20.58;47.85;100939.72;4974506;28;20563;-70
2022/09/24 05:39:34;;;;;;;9.98;5.97;;;;;;;20.59;47.97;100940.56;4974480;28;20037;-71
2022/09/24 05:42:02;;;;;;;14.18;6.50;;;;;;;20.56;48.16;100940.94;4975714;28;20400;-70
2022/09/24 05:44:28;;;;;;;13.00;6.38;;;;;;;20.57;47.88;100950.81;4975706;28;20425;-70
2022/09/24 05:46:53;;;;;;;14.68;5.95;;;;;;;20.59;47.86;100940.56;4958199;28;20121;-70
2022/09/24 05:49:19;;;;;;;11.65;5.65;;;;;;;20.59;47.75;100946.84;4975478;28;20070;-70
2022/09/24 05:51:46;;;;;;;12.85;6.20;;;;;;;20.59;47.74;100951.44;4958118;28;20023;-70
2022/09/24 05:54:12;;;;;;;9.15;6.43;;;;;;;20.61;48.36;100949.38;4958012;28;20061;-70
2022/09/24 05:56:37;;;;;;;12.18;5.53;;;;;;;20.59;48.40;100952.31;4975360;28;20055;-70
2022/09/24 05:59:03;;;;;;;8.73;5.72;;;;;;;20.60;48.17;100953.16;4942327;28;20488;-70
2022/09/24 06:01:28;;;;;;;9.52;5.53;;;;;;;20.58;48.29;100956.06;4974090;28;20035;-70
2022/09/24 06:03:57;;;;;;;12.77;5.75;;;;;;;20.59;47.80;100946.84;4957629;28;20062;-70
2022/09/24 06:06:24;;;;;;;11.85;5.47;;;;;;;20.59;47.74;100946.00;4973943;28;20101;-70
2022/09/24 06:08:49;;;;;;;9.05;5.68;;;;;;;20.61;48.48;100941.22;4973922;28;20026;-70
2022/09/24 06:11:15;;;;;;;10.63;5.80;;;;;;;20.63;48.39;100947.34;4973872;28;20023;-70
2022/09/24 06:13:40;;;;;;;12.20;6.32;;;;;;;20.65;48.30;100954.28;4973727;28;20082;-70
2022/09/24 06:16:07;;;;;;;8.50;5.53;;;;;;;20.67;47.92;100956.78;4974125;28;20023;-69
2022/09/24 06:18:38;;;;;;;8.70;5.57;;;;;;;20.67;48.37;100948.63;4973840;28;20030;-70
2022/09/24 06:21:06;;;;;;;9.57;5.63;;;;;;;20.69;48.72;100951.97;4973677;28;20030;-70
2022/09/24 06:23:33;;;;;;;11.23;6.15;;;;;;;20.71;48.18;100955.38;4957408;28;20035;-70
2022/09/24 06:25:58;;;;;;;11.95;6.30;;;;;;;20.71;48.47;100956.22;4957567;28;20090;-70
2022/09/24 06:28:26;;;;;;;10.02;5.60;;;;;;;20.74;48.27;100960.44;4973664;28;20039;-70
2022/09/24 06:30:52;;;;;;;11.20;5.47;;;;;;;20.75;48.28;100956.66;4973526;28;20023;-70
2022/09/24 06:33:19;;;;;;;7.30;5.15;;;;;;;20.78;48.26;100957.13;4957386;28;20031;-70
2022/09/24 06:35:45;;;;;;;10.85;6.20;;;;;;;20.80;48.45;100957.78;4973537;28;20106;-70
2022/09/24 06:38:11;;;;;;;10.38;5.90;;;;;;;20.80;48.45;100963.22;4973492;28;20089;-70
2022/09/24 06:40:38;;;;;;;13.10;6.10;;;;;;;20.85;48.35;100968.13;4973543;28;20031;-70
2022/09/24 06:43:05;;;;;;;9.25;5.63;;;;;;;20.86;48.64;100962.47;4973332;28;20023;-70
2022/09/24 06:45:30;;;;;;;10.07;5.30;;;;;;;20.90;48.42;100965.66;4973621;28;20054;-70
2022/09/24 06:47:57;;;;;;;9.88;5.88;;;;;;;20.94;48.33;100961.47;4957198;28;20038;-70
2022/09/24 06:50:24;;;;;;;9.60;5.57;;;;;;;21.00;47.84;100974.34;4973409;28;20034;-70
2022/09/24 06:52:49;;;;;;;12.05;5.72;;;;;;;20.98;48.46;100962.81;4973313;28;20026;-70
2022/09/24 06:55:16;;;;;;;11.70;6.22;;;;;;;21.09;48.26;100969.63;4973347;28;20030;-70
2022/09/24 06:57:41;;;;;;;12.70;6.10;;;;;;;21.11;49.00;100970.28;4973238;28;20035;-70
2022/09/24 07:00:07;;;;;;;9.63;5.72;;;;;;;21.18;48.61;100965.75;4957388;28;20504;-70
2022/09/24 07:02:33;;;;;;;10.30;5.15;;;;;;;21.22;48.16;100965.16;4957021;28;20035;-69
2022/09/24 07:04:58;;;;;;;9.45;5.97;;;;;;;21.28;48.79;100980.75;4973146;28;20062;-70
2022/09/24 07:07:31;;;;;;;10.93;5.57;;;;;;;21.31;48.25;100972.19;4973148;28;20043;-70
2022/09/24 07:09:57;;;;;;;18.85;6.00;;;;;;;21.36;48.04;100977.03;4958197;28;20370;-70
2022/09/24 07:12:23;;;;;;;15.02;5.82;;;;;;;21.40;48.29;100975.63;4973099;28;20050;-70
2022/09/24 07:14:49;;;;;;;14.23;6.82;;;;;;;21.40;48.09;100976.47;4956990;28;20035;-70
2022/09/24 07:17:15;;;;;;;10.70;5.68;;;;;;;21.43;48.60;100977.94;4957058;28;20401;-70
2022/09/24 07:19:40;;;;;;;12.90;5.57;;;;;;;21.43;47.78;100978.78;4973096;28;20027;-70
2022/09/24 07:22:06;;;;;;;12.48;5.88;;;;;;;21.45;47.53;100979.44;4973065;28;20038;-70
2022/09/24 07:24:31;;;;;;;9.27;6.20;;;;;;;21.47;48.21;100979.22;4972963;28;20035;-70
2022/09/24 07:26:57;;;;;;;10.60;5.70;;;;;;;21.47;48.18;100985.53;4956912;28;20035;-70
2022/09/24 07:29:22;;;;;;;11.45;5.18;;;;;;;21.44;48.27;100980.47;4956833;28;20030;-70
2022/09/24 07:31:47;;;;;;;8.30;5.07;;;;;;;21.42;48.82;100981.69;4956863;28;20370;-70
2022/09/24 07:34:13;;;;;;;13.60;6.03;;;;;;;21.44;48.21;100991.38;4942440;28;20030;-70
2022/09/24 07:36:39;;;;;;;11.85;5.80;;;;;;;21.38;48.38;100986.69;4976775;28;20575;-70
2022/09/24 07:39:05;;;;;;;10.80;5.15;;;;;;;21.36;48.43;100994.22;4976668;28;20023;-70
2022/09/24 07:41:31;;;;;;;11.85;5.38;;;;;;;21.34;49.19;100995.47;4960652;28;20086;-71
2022/09/24 07:43:57;;;;;;;11.77;5.38;;;;;;;21.31;49.12;100995.84;4976526;28;20038;-70
2022/09/24 07:46:23;;;;;;;14.98;6.55;;;;;;;21.32;48.64;101000.28;4976644;28;20031;-70
2022/09/24 07:48:51;;;;;;;11.38;5.30;;;;;;;21.34;48.58;100999.03;4960588;28;20041;-70
2022/09/24 07:51:16;;;;;;;11.38;6.63;;;;;;;21.36;49.08;100999.69;4976511;28;20126;-70
2022/09/24 07:53:42;;;;;;;13.63;5.85;;;;;;;21.39;48.24;100999.28;4976289;28;20122;-70
2022/09/24 07:56:07;;;;;;;14.85;5.88;;;;;;;21.42;48.28;101008.97;4976419;28;20392;-70
2022/09/24 07:58:32;;;;;;;11.38;5.85;;;;;;;21.46;48.41;101005.66;4976378;28;20122;-69
2022/09/24 08:00:59;;;;;;;10.75;6.15;;;;;;;21.51;48.98;100998.78;4976414;28;20078;-70
2022/09/24 08:03:24;;;;;;;11.70;6.40;;;;;;;21.54;48.83;101001.09;4976036;28;20064;-71
2022/09/24 08:05:55;;;;;;;11.63;5.38;;;;;;;21.63;48.65;100997.22;4976243;28;20382;-71
2022/09/24 08:08:20;;;;;;;9.95;6.20;;;;;;;21.68;48.24;101000.19;4976179;28;20026;-71
2022/09/24 08:10:46;;;;;;;12.85;6.65;;;;;;;21.75;48.22;100992.88;4960289;28;20058;-71
2022/09/24 08:13:11;;;;;;;11.98;6.43;;;;;;;21.84;48.16;100997.16;4943928;28;20030;-70
2022/09/24 08:15:36;;;;;;;12.55;5.90;;;;;;;21.92;48.18;101000.63;4976019;28;20027;-70
2022/09/24 08:18:02;;;;;;;9.27;6.22;;;;;;;22.01;48.08;101001.31;4975964;28;20058;-70
2022/09/24 08:20:29;;;;;;;10.27;5.95;;;;;;;22.05;48.56;100999.88;4943915;28;20057;-70
2022/09/24 08:23:06;;;;;;;13.07;5.95;;;;;;;22.10;48.35;101002.84;4959890;28;20481;-70
2022/09/24 08:25:32;;;;;;;12.23;5.28;;;;;;;22.14;47.76;101009.56;4975890;28;20090;-70
2022/09/24 08:28:05;;;;;;;13.50;6.30;;;;;;;22.23;47.76;101005.66;4975926;28;20035;-70
2022/09/24 08:30:32;;;;;;;12.30;6.28;;;;;;;22.27;47.52;101003.38;4959596;28;20078;-70
2022/09/24 08:32:57;;;;;;;13.55;6.70;;;;;;;22.35;48.00;101011.41;4975840;28;20030;-71
2022/09/24 08:35:23;;;;;;;15.63;6.38;;;;;;;22.40;48.38;101004.28;4975708;28;20031;-70
2022/09/24 08:37:48;;;;;;;9.40;6.13;;;;;;;22.44;47.27;101005.59;4975611;28;20030;-70
2022/09/24 08:40:19;;;;;;;9.15;5.78;;;;;;;22.48;47.65;101012.31;4976783;28;20121;-70
2022/09/24 08:42:53;;;;;;;13.43;6.00;;;;;;;22.49;47.41;101011.28;4975539;28;20031;-70
2022/09/24 08:48:12;;;;;;;13.45;5.90;;;;;;;22.65;48.12;101012.00;4975678;28;20042;-70
2022/09/24 08:50:44;;;;;;;10.60;6.13;;;;;;;22.72;47.07;101013.72;4959484;28;20450;-70
2022/09/24 08:53:20;;;;;;;12.48;5.95;;;;;;;22.83;47.96;101012.28;4975421;28;20369;-70
2022/09/24 08:55:46;;;;;;;10.40;5.75;;;;;;;22.91;47.73;101023.03;4959365;28;20076;-70
2022/09/24 08:58:35;;;;;;;10.82;5.53;;;;;;;22.98;47.43;101012.97;4975332;28;20057;-71
2022/09/24 09:01:10;;;;;;;9.48;5.28;;;;;;;23.01;47.94;101016.13;4975351;28;20074;-70
2022/09/24 09:03:44;;;;;;;8.75;5.20;;;;;;;23.03;47.79;101015.94;4976077;28;20456;-70
2022/09/24 09:06:11;;;;;;;10.32;5.53;;;;;;;23.07;47.03;101018.03;4975107;28;20365;-70
2022/09/24 09:08:57;;;;;;;8.70;4.75;;;;;;;23.09;47.49;101023.28;4975070;28;20388;-70
2022/09/24 09:11:27;;;;;;;8.65;4.07;;;;;;;23.08;46.92;101024.34;4958785;28;20030;-70
2022/09/24 09:14:17;;;;;;;10.80;5.15;;;;;;;23.07;47.84;101022.66;4975022;28;20392;-70
2022/09/24 09:16:51;;;;;;;9.43;4.10;;;;;;;23.09;46.94;101031.50;4948735;28;20158;-70
2022/09/24 09:19:18;;;;;;;7.03;4.28;;;;;;;23.09;46.94;101026.03;4959028;28;20400;-70
2022/09/24 09:21:55;;;;;;;9.07;4.60;;;;;;;23.11;47.13;101029.41;4974977;28;20022;-69
2022/09/24 09:24:25;;;;;;;8.85;5.20;;;;;;;23.13;47.79;101027.31;4974675;28;20392;-70
2022/09/24 09:26:54;;;;;;;6.88;4.25;;;;;;;23.14;47.32;101024.34;4974747;28;20022;-70
2022/09/24 09:29:21;;;;;;;11.18;5.25;;;;;;;23.14;47.15;101024.34;4974793;28;20101;-70
2022/09/24 09:32:03;;;;;;;7.30;4.15;;;;;;;23.18;47.29;101028.38;4974563;28;20023;-70
2022/09/24 09:34:47;;;;;;;12.30;4.88;;;;;;;23.22;46.58;101025.22;4975799;28;20022;-70
2022/09/24 09:37:28;;;;;;;9.82;4.43;;;;;;;23.25;46.52;101025.66;4975982;28;20110;-70
2022/09/24 09:40:25;;;;;;;8.75;3.97;;;;;;;23.27;47.18;101026.31;4958419;28;20039;-70
2022/09/24 09:42:58;;;;;;;11.68;5.25;;;;;;;23.27;46.94;101017.25;4962389;28;20043;-70
2022/09/24 09:45:46;;;;;;;7.57;4.28;;;;;;;23.35;46.63;101025.25;4958330;28;20124;-70
2022/09/24 09:48:13;;;;;;;8.65;4.57;;;;;;;23.38;47.04;101024.88;4974401;28;20026;-70
2022/09/24 09:50:45;;;;;;;8.45;5.65;;;;;;;23.44;46.61;101024.91;4974467;28;20025;-70
2022/09/24 09:53:38;;;;;;;;;;;;;;;23.46;46.35;101022.78;4974739;28;20019;-70
2022/09/24 09:56:06;;;;;;;8.68;4.10;;;;;;;23.48;46.79;101020.69;4972332;28;20360;-70
2022/09/24 09:58:33;;;;;;;9.15;4.53;;;;;;;23.53;46.76;101029.13;4974097;28;20030;-70
2022/09/24 10:01:11;;;;;;;7.88;3.75;;;;;;;23.55;46.93;101028.91;4974100;28;20035;-70
2022/09/24 10:03:43;;;;;;;8.40;3.92;;;;;;;23.58;45.99;101029.34;4973927;28;20053;-70
2022/09/24 10:06:10;;;;;;;6.95;3.50;;;;;;;23.65;46.60;101021.97;4973898;28;20029;-70
2022/09/24 10:08:36;;;;;;;8.70;4.43;;;;;;;23.76;46.68;101026.81;4973980;28;20477;-70
2022/09/24 10:11:02;;;;;;;8.05;3.90;;;;;;;23.94;46.35;101023.44;4974019;28;20038;-70
2022/09/24 10:13:30;;;;;;;8.75;3.55;;;;;;;24.10;46.22;101017.56;4957770;28;20037;-70
2022/09/24 10:15:55;;;;;;;6.18;3.80;;;;;;;24.35;45.84;101023.19;4974005;28;20501;-70
2022/09/24 10:18:33;;;;;;;10.23;4.18;;;;;;;24.75;44.83;101012.94;4957699;28;20121;-70
2022/09/24 10:21:01;;;;;;;5.78;3.50;;;;;;;25.40;44.36;101006.31;4973823;28;20018;-70
2022/09/24 10:23:48;;;;;;;5.40;3.47;;;;;;;26.23;42.55;101002.25;4973728;28;20038;-70
2022/09/24 10:26:14;;;;;;;6.63;4.03;;;;;;;27.04;43.08;101002.78;4973729;28;20033;-71
2022/09/24 10:31:37;;;;;;;5.65;3.30;;;;;;;27.85;41.55;101002.16;4973753;28;20412;-71
2022/09/24 10:34:04;;;;;;;11.25;4.15;;;;;;;28.04;41.41;100998.25;4973538;28;20015;-72
2022/09/24 10:36:31;;;;;;;6.20;3.60;;;;;;;28.05;41.68;101002.69;4973494;28;20397;-71
2022/09/24 10:39:07;;;;;;;7.88;3.22;;;;;;;28.03;41.64;100998.50;4973519;28;20031;-71
2022/09/24 10:41:33;;;;;;;8.43;2.90;;;;;;;28.35;40.82;100993.44;4974652;28;20030;-72
2022/09/24 10:44:19;;;;;;;4.93;3.25;;;;;;;28.49;41.33;100997.59;4957278;28;20485;-73
2022/09/24 10:46:59;;;;;;;5.90;3.60;;;;;;;28.68;40.03;100994.47;4973208;28;20034;-72
2022/09/24 10:49:46;;;;;;;5.10;3.13;;;;;;;28.83;39.78;100989.28;4974570;28;20493;-72
2022/09/24 10:52:49;;;;;;;4.45;2.88;;;;;;;28.77;40.53;100983.91;4974496;28;20027;-71
2022/09/24 10:55:46;;;;;;;7.78;3.70;;;;;;;28.62;39.98;100986.31;4957210;28;20481;-71
2022/09/24 10:58:26;;;;;;;7.95;3.90;;;;;;;28.75;40.70;100991.59;4952965;28;20113;-72
2022/09/24 11:01:22;;;;;;;5.13;3.70;;;;;;;28.89;39.88;100985.53;4973447;28;20030;-72
2022/09/24 11:03:59;;;;;;;7.65;4.15;;;;;;;29.13;39.87;100989.03;4956787;28;20114;-72
2022/09/24 11:07:01;;;;;;;11.35;4.18;;;;;;;28.91;39.71;100982.53;4974291;28;20101;-72
2022/09/24 11:09:56;;;;;;;6.65;4.30;;;;;;;29.14;39.55;100974.16;4955066;28;20054;-72
2022/09/24 11:12:45;;;;;;;6.80;3.47;;;;;;;29.43;39.41;100992.38;4978300;28;20030;-72
2022/09/24 11:15:42;;;;;;;5.75;3.90;;;;;;;29.40;38.79;100987.34;4960872;28;20081;-71
2022/09/24 11:18:46;;;;;;;8.82;3.80;;;;;;;29.21;39.63;100983.13;4960814;28;20018;-71
2022/09/24 11:21:20;;;;;;;7.85;4.10;;;;;;;28.94;40.10;100984.81;4921586;29;20039;-71
2022/09/24 11:23:49;;;;;;;5.68;3.75;;;;;;;28.70;40.50;100977.72;4937513;29;20059;-71
2022/09/24 11:26:46;;;;;;;7.15;3.53;;;;;;;28.43;39.68;100982.03;4950287;28;20038;-72
2022/09/24 11:29:29;;;;;;;7.97;3.65;;;;;;;28.16;40.25;100979.81;4976804;28;20473;-71
2022/09/24 11:32:13;;;;;;;5.18;3.03;;;;;;;27.99;39.75;100986.25;4976611;28;20659;-71
2022/09/24 11:34:45;;;;;;;7.90;3.50;;;;;;;27.85;39.90;100985.66;4977925;28;20106;-70
2022/09/24 11:37:49;;;;;;;6.40;3.42;;;;;;;27.75;40.75;100990.88;4976610;28;20034;-70
2022/09/24 11:40:19;;;;;;;5.25;2.92;;;;;;;27.68;40.58;100984.66;4977752;28;20042;-70
2022/09/24 11:43:05;;;;;;;4.60;2.83;;;;;;;27.83;40.17;100989.72;4960513;28;20121;-71